Time;durP1;ratioP1;P1;durP2;ratioP2;P2;SDS_P1;SDS_P2;PMS_P1;PMS_P2;Temp;Humidity;BMP_temperature;BMP_pressure;BME280_temperature;BME280_humidity;BME280_pressure;Samples;Min_cycle;Max_cycle;Signal;HPM_P1;HPM_P2
2022/10/03 00:00:31;;;;;;;31.30;4.50;;;11.30;92.70;;;;;;5014945;28;20193;-90
2022/10/03 00:03:15;;;;;;;22.77;4.33;;;11.30;92.60;;;;;;5013499;28;20659;-88
2022/10/03 00:05:50;;;;;;;18.70;4.97;;;11.30;92.60;;;;;;5014558;28;20555;-87
2022/10/03 00:08:40;;;;;;;27.23;5.00;;;11.30;92.60;;;;;;5013367;28;20394;-88
2022/10/03 00:11:34;;;;;;;31.87;4.53;;;11.30;92.70;;;;;;5014891;28;20165;-87
2022/10/03 00:14:11;;;;;;;21.77;4.07;;;11.40;92.70;;;;;;5014443;28;20216;-87
2022/10/03 00:16:51;;;;;;;25.70;4.70;;;11.50;92.70;;;;;;5014654;28;20184;-87
2022/10/03 00:19:27;;;;;;;20.87;4.60;;;11.40;92.60;;;;;;5016223;28;20657;-90
2022/10/03 00:22:17;;;;;;;29.17;5.27;;;11.40;92.60;;;;;;5014139;28;20267;-87
2022/10/03 00:25:13;;;;;;;23.80;4.80;;;11.40;92.50;;;;;;5014114;28;20153;-87
2022/10/03 00:27:47;;;;;;;29.17;4.77;;;11.50;92.50;;;;;;5015544;28;20173;-86
2022/10/03 00:30:21;;;;;;;23.73;4.77;;;11.50;92.40;;;;;;5012790;28;20197;-86
2022/10/03 00:33:12;;;;;;;27.20;4.17;;;11.50;92.30;;;;;;5017881;28;20208;-89
2022/10/03 00:36:01;;;;;;;23.27;4.87;;;11.50;92.20;;;;;;5015893;28;20198;-87
2022/10/03 00:38:29;;;;;;;22.43;5.03;;;11.50;92.20;;;;;;5012972;28;20220;-86
2022/10/03 00:41:10;;;;;;;26.20;4.30;;;11.50;92.10;;;;;;5012624;28;20169;-86
2022/10/03 00:44:28;;;;;;;21.70;4.57;;;11.40;92.00;;;;;;5012572;28;20518;-86
2022/10/03 00:47:11;;;;;;;21.33;4.47;;;11.40;92.10;;;;;;5012816;28;20242;-86
2022/10/03 00:49:49;;;;;;;19.83;4.50;;;11.40;92.10;;;;;;5013823;28;20359;-87
2022/10/03 00:52:35;;;;;;;32.97;5.17;;;11.40;92.20;;;;;;5013760;28;20165;-86
2022/10/03 00:55:35;;;;;;;34.90;5.03;;;11.40;92.20;;;;;;5014695;28;20158;-87
2022/10/03 00:58:10;;;;;;;23.00;4.50;;;11.50;92.20;;;;;;5013933;28;20687;-87
2022/10/03 01:00:35;;;;;;;24.80;4.87;;;11.50;92.20;;;;;;5013822;28;20243;-87
2022/10/03 01:03:22;;;;;;;23.97;5.20;;;11.50;92.20;;;;;;5012517;28;20186;-86
2022/10/03 01:06:19;;;;;;;15.87;4.50;;;11.50;92.30;;;;;;5012761;28;20200;-87
2022/10/03 01:09:09;;;;;;;26.30;4.60;;;11.50;92.40;;;;;;5012165;28;20723;-87
2022/10/03 01:12:05;;;;;;;28.13;4.33;;;11.60;92.40;;;;;;5015009;28;20169;-87
2022/10/03 01:14:50;;;;;;;28.13;5.80;;;11.70;92.30;;;;;;5013517;28;20174;-87
2022/10/03 01:17:49;;;;;;;25.67;6.27;;;11.70;92.30;;;;;;5013359;28;20513;-86
2022/10/03 01:20:45;;;;;;;29.00;5.00;;;11.60;92.20;;;;;;5013030;28;20292;-87
2022/10/03 01:23:56;;;;;;;26.80;5.67;;;11.60;92.20;;;;;;5013336;28;20253;-86
2022/10/03 01:26:51;;;;;;;16.83;3.70;;;11.60;92.10;;;;;;4918274;29;20207;-87
2022/10/03 01:32:39;;;;;;;21.47;5.63;;;11.60;91.80;;;;;;5016851;28;20650;-86
2022/10/03 01:35:30;;;;;;;18.73;3.70;;;11.60;91.60;;;;;;5015051;28;20161;-86
2022/10/03 01:37:58;;;;;;;21.57;4.23;;;11.60;91.40;;;;;;5017248;28;20158;-86
2022/10/03 01:40:28;;;;;;;12.17;3.30;;;11.70;91.30;;;;;;5015648;28;20292;-86
2022/10/03 01:43:12;;;;;;;19.83;4.10;;;11.70;91.20;;;;;;5016160;28;20609;-87
2022/10/03 01:45:56;;;;;;;23.47;3.87;;;11.60;91.10;;;;;;5016950;28;20165;-86
2022/10/03 01:48:39;;;;;;;21.10;4.73;;;11.60;91.10;;;;;;5018823;28;20239;-88
2022/10/03 01:51:27;;;;;;;24.63;4.10;;;11.50;90.90;;;;;;5016926;28;20158;-86
2022/10/03 01:54:29;;;;;;;24.53;3.90;;;11.50;90.90;;;;;;5016440;28;20165;-86
2022/10/03 01:57:00;;;;;;;21.97;4.57;;;11.40;90.80;;;;;;5020493;28;20161;-89
2022/10/03 01:59:40;;;;;;;21.83;3.90;;;11.40;90.80;;;;;;5019784;28;20197;-89
2022/10/03 02:02:28;;;;;;;21.53;3.70;;;11.40;90.80;;;;;;5021929;28;20165;-89
2022/10/03 02:05:07;;;;;;;14.17;3.37;;;11.40;90.70;;;;;;5019874;28;20181;-89
2022/10/03 02:08:06;;;;;;;15.50;3.47;;;11.40;90.60;;;;;;5019567;28;20205;-89
2022/10/03 02:10:40;;;;;;;27.03;3.90;;;11.40;90.60;;;;;;5019510;28;20197;-89
2022/10/03 02:13:18;;;;;;;20.67;4.00;;;11.40;90.60;;;;;;5019661;28;20227;-89
2022/10/03 02:16:06;;;;;;;19.23;4.10;;;11.40;90.60;;;;;;5017707;28;20177;-86
2022/10/03 02:18:43;;;;;;;20.53;4.53;;;11.40;90.60;;;;;;5015851;28;20236;-86
2022/10/03 02:21:16;;;;;;;19.53;3.97;;;11.40;90.90;;;;;;5015735;28;20584;-89
2022/10/03 02:23:44;;;;;;;19.90;4.00;;;11.40;90.80;;;;;;5016100;28;20193;-86
2022/10/03 02:26:28;;;;;;;21.47;3.57;;;11.40;90.80;;;;;;5014476;28;20213;-87
2022/10/03 02:29:02;;;;;;;18.90;3.50;;;11.30;90.90;;;;;;5015823;28;20209;-87
2022/10/03 02:32:18;;;;;;;17.00;3.60;;;11.40;90.90;;;;;;5014417;28;20177;-86
2022/10/03 02:35:02;;;;;;;11.93;3.07;;;11.40;90.90;;;;;;4920168;29;20208;-86
2022/10/03 02:37:48;;;;;;;22.73;3.83;;;11.30;90.80;;;;;;5014267;28;20170;-87
2022/10/03 02:40:31;;;;;;;22.20;4.13;;;11.40;91.00;;;;;;5014206;28;20694;-87
2022/10/03 02:43:19;;;;;;;20.57;3.83;;;11.30;91.00;;;;;;5014253;28;20303;-87
2022/10/03 02:46:06;;;;;;;15.73;3.27;;;11.30;91.00;;;;;;5014428;28;20581;-87
2022/10/03 02:49:10;;;;;;;26.03;4.50;;;11.30;90.90;;;;;;5014813;28;20239;-87
2022/10/03 02:51:53;;;;;;;15.67;3.80;;;11.30;91.00;;;;;;4919790;29;20647;-87
2022/10/03 02:54:40;;;;;;;20.67;3.50;;;11.30;91.10;;;;;;5005507;28;20240;-87
2022/10/03 02:57:30;;;;;;;18.13;4.30;;;11.30;91.10;;;;;;5014031;28;20165;-87
2022/10/03 03:00:21;;;;;;;16.77;3.50;;;11.30;91.20;;;;;;5015021;28;20219;-86
2022/10/03 03:03:19;;;;;;;26.60;4.40;;;11.30;91.20;;;;;;5013870;28;20184;-87
2022/10/03 03:06:28;;;;;;;17.50;4.40;;;11.30;91.30;;;;;;4971405;28;20189;-86
2022/10/03 03:09:16;;;;;;;21.63;3.87;;;11.30;91.50;;;;;;4919366;29;20219;-87
2022/10/03 03:12:07;;;;;;;14.87;3.60;;;11.30;91.50;;;;;;5013627;28;20256;-89
2022/10/03 03:14:56;;;;;;;15.47;3.57;;;11.30;91.40;;;;;;5013547;28;20173;-86
2022/10/03 03:17:36;;;;;;;17.80;4.00;;;11.20;91.40;;;;;;5013741;28;20177;-87
2022/10/03 03:20:39;;;;;;;23.33;3.97;;;11.20;91.30;;;;;;5014341;28;20232;-87
2022/10/03 03:23:04;;;;;;;25.50;4.30;;;11.00;91.20;;;;;;5013738;28;20257;-87
2022/10/03 03:25:48;;;;;;;18.00;4.53;;;11.00;91.40;;;;;;5014252;28;20205;-87
2022/10/03 03:28:38;;;;;;;17.20;5.07;;;10.90;91.50;;;;;;5013757;28;20208;-87
2022/10/03 03:31:33;;;;;;;24.80;4.57;;;10.90;91.60;;;;;;5013462;28;20197;-87
2022/10/03 03:34:11;;;;;;;22.00;4.30;;;10.90;91.80;;;;;;5013351;28;20177;-87
2022/10/03 03:36:53;;;;;;;30.83;4.40;;;10.80;91.80;;;;;;5013353;28;20205;-87
2022/10/03 03:39:37;;;;;;;22.97;4.20;;;10.80;91.90;;;;;;5013752;28;20246;-87
2022/10/03 03:42:21;;;;;;;25.30;4.50;;;10.80;92.00;;;;;;5013369;28;20643;-87
2022/10/03 03:45:18;;;;;;;22.97;4.60;;;10.70;92.10;;;;;;5014121;28;20173;-87
2022/10/03 03:47:59;;;;;;;18.43;4.23;;;10.70;92.10;;;;;;4992221;28;20189;-87
2022/10/03 03:50:43;;;;;;;23.20;4.70;;;10.70;92.40;;;;;;5013167;28;20201;-87
2022/10/03 03:53:26;;;;;;;19.73;4.47;;;10.70;92.40;;;;;;5014004;28;20170;-87
2022/10/03 03:56:18;;;;;;;21.10;5.30;;;10.60;92.40;;;;;;5014494;28;20161;-87
2022/10/03 03:59:11;;;;;;;17.53;3.97;;;10.60;92.40;;;;;;5012038;28;20208;-87
2022/10/03 04:01:39;;;;;;;25.63;5.33;;;10.50;92.40;;;;;;5013855;28;20268;-87
2022/10/03 04:04:27;;;;;;;16.43;4.40;;;10.40;92.30;;;;;;5013014;28;20246;-87
2022/10/03 04:06:59;;;;;;;19.13;4.50;;;10.30;92.40;;;;;;5013005;28;20193;-87
2022/10/03 04:09:58;;;;;;;13.73;4.37;;;10.30;92.40;;;;;;5012742;28;20600;-87
2022/10/03 04:12:50;;;;;;;25.07;4.23;;;10.30;92.40;;;;;;5013618;28;20264;-87
2022/10/03 04:15:15;;;;;;;19.63;4.63;;;10.30;92.60;;;;;;5012869;28;20184;-87
2022/10/03 04:21:44;;;;;;;24.97;4.30;;;10.30;92.80;;;;;;5014246;28;20227;-87
2022/10/03 04:24:21;;;;;;;18.37;4.27;;;10.30;92.70;;;;;;5013191;28;20189;-87
2022/10/03 04:27:18;;;;;;;22.70;4.50;;;10.20;92.70;;;;;;5012878;28;20656;-87
2022/10/03 04:30:08;;;;;;;19.13;4.30;;;10.10;92.70;;;;;;5012481;28;20212;-87
2022/10/03 04:33:00;;;;;;;23.10;5.47;;;10.10;92.80;;;;;;5012677;28;20173;-87
2022/10/03 04:35:52;;;;;;;29.10;4.37;;;10.10;92.90;;;;;;5012584;28;20177;-86
2022/10/03 04:38:38;;;;;;;18.57;4.43;;;10.00;92.80;;;;;;5012481;28;20185;-87
2022/10/03 04:41:39;;;;;;;22.97;4.53;;;10.00;92.90;;;;;;5012546;28;20184;-87
2022/10/03 04:44:14;;;;;;;28.00;4.60;;;10.00;93.00;;;;;;5013403;28;20317;-87
2022/10/03 04:46:55;;;;;;;22.63;4.40;;;10.00;92.90;;;;;;5013990;28;20211;-87
2022/10/03 04:49:31;;;;;;;21.47;5.17;;;10.00;93.00;;;;;;5012101;28;20213;-87
2022/10/03 04:52:03;;;;;;;25.97;5.80;;;9.90;93.10;;;;;;5012504;28;20260;-87
2022/10/03 04:55:00;;;;;;;28.27;5.37;;;9.90;93.00;;;;;;5012331;28;20185;-87
2022/10/03 04:57:46;;;;;;;16.47;4.10;;;9.90;93.10;;;;;;5002584;28;20644;-87
2022/10/03 05:00:28;;;;;;;28.33;5.20;;;9.90;93.20;;;;;;5012055;28;20201;-87
2022/10/03 05:02:57;;;;;;;23.50;5.27;;;10.10;93.30;;;;;;5012381;28;20674;-86
2022/10/03 05:05:33;;;;;;;31.87;5.63;;;10.10;93.30;;;;;;5012117;28;20273;-87
2022/10/03 05:08:18;;;;;;;23.57;5.40;;;10.10;93.40;;;;;;5011982;28;20208;-87
2022/10/03 05:11:08;;;;;;;20.63;4.63;;;10.20;93.40;;;;;;5014994;28;20196;-87
2022/10/03 05:14:03;;;;;;;30.50;5.93;;;10.20;93.50;;;;;;5015967;28;20598;-87
2022/10/03 05:17:03;;;;;;;34.07;5.37;;;10.20;93.50;;;;;;5015797;28;20260;-87
2022/10/03 05:19:44;;;;;;;26.97;5.63;;;10.20;93.50;;;;;;5015580;28;20217;-87
2022/10/03 05:22:40;;;;;;;29.63;5.03;;;10.30;93.60;;;;;;5015729;28;20209;-86
2022/10/03 05:25:32;;;;;;;36.53;7.93;;;10.40;93.70;;;;;;4966435;28;20192;-87
2022/10/03 05:28:14;;;;;;;29.37;5.17;;;10.40;93.70;;;;;;5016314;28;20256;-86
2022/10/03 05:30:56;;;;;;;29.60;4.90;;;10.60;93.90;;;;;;5015912;28;20165;-87
2022/10/03 05:33:41;;;;;;;18.57;5.00;;;10.40;93.70;;;;;;5016099;28;20173;-87
2022/10/03 05:36:15;;;;;;;28.53;5.43;;;10.40;93.70;;;;;;5015516;28;20189;-87
2022/10/03 05:39:18;;;;;;;29.13;6.00;;;10.50;93.90;;;;;;5015312;28;20198;-87
2022/10/03 05:42:26;;;;;;;27.13;5.50;;;10.50;93.90;;;;;;5015353;28;20713;-86
2022/10/03 05:45:13;;;;;;;32.67;5.87;;;10.40;93.80;;;;;;4970305;28;20668;-87
2022/10/03 05:47:50;;;;;;;30.20;5.70;;;10.40;93.80;;;;;;5015199;28;20177;-86
2022/10/03 05:50:34;;;;;;;27.90;5.73;;;10.40;93.80;;;;;;5015551;28;20224;-87
2022/10/03 05:53:31;;;;;;;36.93;6.50;;;10.30;93.80;;;;;;5015283;28;20170;-87
2022/10/03 05:56:27;;;;;;;33.50;6.00;;;10.30;93.90;;;;;;5015178;28;20174;-87
2022/10/03 05:59:08;;;;;;;30.87;5.57;;;10.30;93.90;;;;;;5014932;28;20296;-87
2022/10/03 06:02:02;;;;;;;27.47;5.57;;;10.30;93.90;;;;;;5014993;28;20529;-87
2022/10/03 06:04:52;;;;;;;24.30;5.70;;;10.30;93.90;;;;;;5014989;28;20624;-87
2022/10/03 06:07:58;;;;;;;31.27;5.80;;;10.50;94.00;;;;;;5014859;28;20212;-87
2022/10/03 06:10:45;;;;;;;31.90;6.57;;;10.60;94.20;;;;;;4981872;28;20220;-87
2022/10/03 06:13:29;;;;;;;35.80;6.10;;;10.60;94.10;;;;;;5015381;28;20169;-87
2022/10/03 06:16:01;;;;;;;26.30;5.37;;;10.70;94.20;;;;;;5014746;28;20169;-89
2022/10/03 06:18:54;;;;;;;31.23;6.23;;;10.70;94.10;;;;;;5014682;28;20169;-87
2022/10/03 06:21:40;;;;;;;31.20;5.77;;;10.80;94.20;;;;;;5013717;28;20185;-86
2022/10/03 06:24:58;;;;;;;24.50;5.10;;;10.90;94.30;;;;;;5015504;28;20169;-86
2022/10/03 06:28:01;;;;;;;39.87;6.87;;;11.20;94.40;;;;;;4944935;28;20185;-88
2022/10/03 06:30:41;;;;;;;21.87;5.40;;;11.20;94.20;;;;;;5014557;28;20208;-89
2022/10/03 06:33:46;;;;;;;20.07;4.13;;;11.30;94.20;;;;;;5014709;28;20165;-89
2022/10/03 06:36:31;;;;;;;26.10;4.50;;;11.40;94.30;;;;;;5014598;28;20173;-87
2022/10/03 06:39:15;;;;;;;21.50;3.50;;;11.50;94.20;;;;;;5014291;28;20204;-87
2022/10/03 06:41:47;;;;;;;22.30;3.60;;;11.60;94.30;;;;;;5015684;28;20224;-88
2022/10/03 06:44:56;;;;;;;25.10;4.37;;;11.60;94.30;;;;;;5015036;28;20643;-88
2022/10/03 06:47:50;;;;;;;28.33;4.10;;;11.70;94.20;;;;;;4961117;28;20181;-88
2022/10/03 06:51:06;;;;;;;21.43;3.80;;;11.70;94.20;;;;;;5014047;28;20558;-88
2022/10/03 06:53:42;;;;;;;23.37;4.87;;;11.70;94.10;;;;;;4920026;29;20207;-86
2022/10/03 06:56:42;;;;;;;28.00;4.40;;;11.60;94.10;;;;;;4919907;29;20210;-86
2022/10/03 06:59:31;;;;;;;21.07;4.30;;;11.60;94.00;;;;;;4999422;28;20252;-88
2022/10/03 07:02:30;;;;;;;17.20;3.53;;;11.60;94.00;;;;;;5013965;28;20261;-89
2022/10/03 07:05:22;;;;;;;19.97;3.57;;;11.60;94.00;;;;;;5013816;28;20172;-86
2022/10/03 07:08:06;;;;;;;17.27;3.47;;;11.60;94.10;;;;;;5014285;28;20211;-88
2022/10/03 07:10:59;;;;;;;20.67;3.37;;;11.70;94.10;;;;;;5015266;28;20737;-88
2022/10/03 07:13:43;;;;;;;16.47;3.57;;;11.80;94.20;;;;;;5013798;28;20189;-88
2022/10/03 07:16:54;;;;;;;19.47;3.37;;;11.90;94.20;;;;;;5013646;28;20231;-88
2022/10/03 07:19:57;;;;;;;16.83;3.60;;;12.00;94.20;;;;;;5013295;28;20209;-88
2022/10/03 07:22:41;;;;;;;23.30;3.10;;;12.00;94.10;;;;;;5013527;28;20645;-88
2022/10/03 07:25:30;;;;;;;15.37;3.43;;;12.20;94.30;;;;;;5013502;28;20177;-88
2022/10/03 07:28:30;;;;;;;31.27;4.27;;;12.30;94.20;;;;;;5013309;28;20216;-88
2022/10/03 07:31:32;;;;;;;22.73;3.63;;;12.30;94.10;;;;;;5013385;28;20166;-89
2022/10/03 07:34:17;;;;;;;21.20;3.53;;;12.30;94.20;;;;;;5013126;28;20173;-89
2022/10/03 07:40:06;;;;;;;22.13;3.60;;;12.60;94.10;;;;;;5014388;28;20701;-89
2022/10/03 07:42:46;;;;;;;32.67;6.93;;;12.50;93.90;;;;;;5014698;28;20216;-88
2022/10/03 07:45:39;;;;;;;29.07;5.23;;;12.60;93.80;;;;;;5013094;28;20548;-89
2022/10/03 07:48:23;;;;;;;20.70;3.63;;;12.70;93.70;;;;;;5013045;28;20209;-88
2022/10/03 07:51:13;;;;;;;21.10;5.20;;;12.80;93.50;;;;;;5012983;28;20177;-88
2022/10/03 07:54:36;;;;;;;29.30;4.40;;;12.90;93.40;;;;;;5012945;28;20165;-89
2022/10/03 07:57:34;;;;;;;22.87;4.27;;;12.90;93.30;;;;;;4918984;29;20271;-89
2022/10/03 08:00:15;;;;;;;21.50;3.53;;;13.00;93.20;;;;;;4934542;29;20255;-88
2022/10/03 08:03:00;;;;;;;27.87;4.07;;;13.00;93.10;;;;;;5008893;28;20195;-89
2022/10/03 08:05:28;;;;;;;14.93;3.50;;;13.10;93.10;;;;;;5012757;28;20175;-89
2022/10/03 08:08:08;;;;;;;25.70;4.63;;;13.20;93.10;;;;;;5013439;28;20178;-89
2022/10/03 08:11:08;;;;;;;23.33;4.67;;;13.20;93.20;;;;;;5012633;28;20235;-89
2022/10/03 08:14:08;;;;;;;17.73;3.47;;;13.20;93.10;;;;;;5012635;28;20177;-89
2022/10/03 08:16:44;;;;;;;24.00;4.47;;;13.30;93.10;;;;;;5012639;28;20255;-89
2022/10/03 08:19:33;;;;;;;23.60;3.80;;;13.40;93.00;;;;;;5013940;28;20296;-89
2022/10/03 08:22:36;;;;;;;19.83;4.40;;;13.40;92.80;;;;;;5014911;28;20181;-89
2022/10/03 08:25:25;;;;;;;21.10;3.87;;;13.40;92.70;;;;;;5013746;28;20185;-89
2022/10/03 08:28:02;;;;;;;26.43;4.63;;;13.60;92.70;;;;;;5014444;28;20181;-88
2022/10/03 08:31:01;;;;;;;17.83;3.77;;;13.50;92.50;;;;;;5015847;28;20207;-88
2022/10/03 08:33:55;;;;;;;21.40;4.20;;;13.60;92.50;;;;;;5013469;28;20170;-88
2022/10/03 08:36:33;;;;;;;27.53;4.60;;;13.60;92.40;;;;;;5014841;28;20162;-86
2022/10/03 08:39:08;;;;;;;22.63;4.13;;;13.70;92.60;;;;;;5013415;28;20263;-86
2022/10/03 08:41:39;;;;;;;20.60;3.97;;;13.80;92.60;;;;;;5013876;28;20244;-86
2022/10/03 08:44:43;;;;;;;23.90;4.33;;;13.80;92.60;;;;;;5012679;28;20181;-89
2022/10/03 08:47:15;;;;;;;26.23;5.07;;;14.00;92.60;;;;;;5013723;28;20676;-89
2022/10/03 08:49:55;;;;;;;17.47;4.23;;;14.30;92.50;;;;;;5014628;28;20209;-89
2022/10/03 08:53:17;;;;;;;14.47;3.33;;;14.30;91.90;;;;;;5015756;28;20574;-89
2022/10/03 08:55:54;;;;;;;19.50;3.55;;;14.40;91.80;;;;;;4961117;28;20185;-89
2022/10/03 08:59:04;;;;;;;14.97;3.93;;;14.60;91.50;;;;;;5013852;28;20170;-89
2022/10/03 09:02:06;;;;;;;18.80;3.50;;;14.70;90.50;;;;;;5015910;28;20169;-89
2022/10/03 09:04:58;;;;;;;19.30;3.50;;;14.80;90.10;;;;;;5014294;28;20655;-89
2022/10/03 09:07:45;;;;;;;22.58;3.40;;;14.90;89.80;;;;;;5016342;28;20169;-88
2022/10/03 09:10:32;;;;;;;21.92;5.13;;;14.80;89.50;;;;;;5017536;28;20193;-88
2022/10/03 09:13:23;;;;;;;14.73;3.17;;;14.90;88.50;;;;;;5014485;28;20177;-88
2022/10/03 09:15:55;;;;;;;10.18;2.67;;;14.90;87.90;;;;;;5015243;28;20158;-88
2022/10/03 09:18:57;;;;;;;11.15;2.97;;;14.80;87.00;;;;;;5015070;28;20237;-90
2022/10/03 09:21:42;;;;;;;14.98;3.17;;;14.80;86.60;;;;;;5014430;28;20670;-89
2022/10/03 09:24:14;;;;;;;12.27;3.17;;;14.90;86.30;;;;;;5013601;28;20182;-89
2022/10/03 09:26:58;;;;;;;15.10;3.03;;;15.00;86.80;;;;;;5014846;28;20169;-89
2022/10/03 09:30:11;;;;;;;18.08;4.03;;;15.00;85.40;;;;;;5016016;28;20209;-90
2022/10/03 09:33:04;;;;;;;14.10;2.88;;;15.10;86.20;;;;;;4919713;29;20189;-88
2022/10/03 09:35:39;;;;;;;14.45;3.33;;;15.10;86.20;;;;;;5013576;28;20275;-89
2022/10/03 09:38:29;;;;;;;17.00;3.67;;;15.20;85.90;;;;;;5014068;28;20165;-89
2022/10/03 09:41:28;;;;;;;18.52;3.30;;;15.20;85.60;;;;;;5014925;28;20166;-89
2022/10/03 09:44:31;;;;;;;14.82;3.40;;;15.20;85.70;;;;;;5014667;28;20177;-89
2022/10/03 09:47:27;;;;;;;14.38;2.70;;;15.50;85.20;;;;;;5014937;28;20177;-89
2022/10/03 09:49:55;;;;;;;15.95;3.22;;;15.50;83.90;;;;;;5015524;28;20259;-89
2022/10/03 09:52:49;;;;;;;14.05;3.28;;;15.30;85.00;;;;;;5015191;28;20228;-89
2022/10/03 09:56:08;;;;;;;19.77;4.35;;;15.00;85.80;;;;;;5016045;28;20627;-89
2022/10/03 09:59:04;;;;;;;16.23;3.15;;;15.00;86.40;;;;;;4939712;29;20638;-89
2022/10/03 10:01:43;;;;;;;18.15;3.58;;;15.10;86.90;;;;;;4939909;29;20164;-89
2022/10/03 10:04:32;;;;;;;25.60;4.35;;;15.10;86.80;;;;;;5000015;28;20190;-89
2022/10/03 10:07:49;;;;;;;12.90;3.22;;;15.10;86.80;;;;;;5017607;28;20162;-90
2022/10/03 10:10:56;;;;;;;14.07;3.45;;;15.00;86.80;;;;;;5017134;28;20209;-89
2022/10/03 10:13:31;;;;;;;10.95;3.10;;;15.10;87.10;;;;;;5018637;28;20219;-88
2022/10/03 10:16:39;;;;;;;20.02;2.80;;;15.30;86.30;;;;;;5017534;28;20173;-89
2022/10/03 10:19:42;;;;;;;15.23;2.88;;;15.70;85.50;;;;;;5019241;28;20208;-89
2022/10/03 10:22:10;;;;;;;13.52;3.15;;;16.10;85.10;;;;;;5018547;28;20627;-90
2022/10/03 10:25:13;;;;;;;10.05;2.80;;;16.00;84.20;;;;;;5019038;28;20181;-88
2022/10/03 10:28:10;;;;;;;12.88;3.72;;;15.80;84.10;;;;;;5019972;28;20260;-88
2022/10/03 10:30:38;;;;;;;16.00;3.38;;;15.50;84.70;;;;;;5024759;28;20221;-88
2022/10/03 10:33:19;;;;;;;15.88;3.75;;;15.40;85.40;;;;;;5019965;28;20204;-90
2022/10/03 10:36:12;;;;;;;17.20;3.80;;;15.40;86.10;;;;;;5020601;28;20158;-88
2022/10/03 10:39:03;;;;;;;18.70;3.10;;;15.40;86.40;;;;;;5021000;28;20591;-88
2022/10/03 10:42:00;;;;;;;14.75;3.35;;;15.60;86.50;;;;;;5021971;28;20173;-88
2022/10/03 10:45:01;;;;;;;15.88;2.58;;;15.70;86.30;;;;;;4989044;28;20197;-88
2022/10/03 10:47:48;;;;;;;10.57;3.03;;;15.70;86.00;;;;;;5023500;28;20206;-89
2022/10/03 10:50:49;;;;;;;14.38;3.55;;;15.80;86.00;;;;;;5020950;28;20710;-89
2022/10/03 10:53:54;;;;;;;18.85;3.22;;;15.80;85.10;;;;;;5022608;28;20154;-89
2022/10/03 10:56:57;;;;;;;19.35;3.17;;;15.90;84.90;;;;;;5005167;28;20185;-89
2022/10/03 10:59:41;;;;;;;12.38;3.20;;;16.30;85.30;;;;;;5021869;28;20615;-88
2022/10/03 11:02:51;;;;;;;15.57;2.88;;;16.70;84.00;;;;;;5020736;28;20627;-90
2022/10/03 11:05:41;;;;;;;17.95;3.38;;;17.20;83.70;;;;;;4922504;29;20215;-90
2022/10/03 11:08:41;;;;;;;14.95;3.20;;;17.00;82.00;;;;;;4940150;29;20157;-89
2022/10/03 11:11:36;;;;;;;10.88;3.38;;;16.70;82.60;;;;;;5009289;28;20185;-89
2022/10/03 11:14:27;;;;;;;15.10;3.03;;;16.40;82.90;;;;;;5018469;28;20169;-89
2022/10/03 11:17:43;;;;;;;16.15;3.10;;;16.20;83.30;;;;;;5017816;28;20225;-90
2022/10/03 11:20:46;;;;;;;12.38;3.42;;;16.00;83.60;;;;;;5019641;28;20213;-90
2022/10/03 11:23:45;;;;;;;15.57;3.70;;;15.90;84.30;;;;;;5019725;28;20185;-90
2022/10/03 11:26:36;;;;;;;13.88;2.75;;;15.80;84.40;;;;;;5019659;28;20252;-89
2022/10/03 11:29:13;;;;;;;11.52;2.80;;;15.90;84.40;;;;;;5023553;28;20308;-89
2022/10/03 11:32:36;;;;;;;14.40;3.25;;;15.90;84.00;;;;;;5022451;28;20180;-88
2022/10/03 11:35:02;;;;;;;11.43;2.78;;;16.00;84.00;;;;;;4952781;28;20193;-88
2022/10/03 11:37:31;;;;;;;13.05;2.65;;;16.00;83.10;;;;;;5021201;28;20173;-88
2022/10/03 11:40:31;;;;;;;14.68;2.75;;;16.10;83.80;;;;;;5019048;28;20201;-89
2022/10/03 11:43:50;;;;;;;16.50;3.00;;;16.20;84.00;;;;;;5021427;28;20180;-89
2022/10/03 11:46:45;;;;;;;12.35;2.63;;;16.20;83.50;;;;;;5020635;28;20177;-88
2022/10/03 11:49:41;;;;;;;10.85;2.83;;;16.20;82.90;;;;;;5021319;28;20205;-89
2022/10/03 11:52:26;;;;;;;12.48;3.10;;;16.20;82.30;;;;;;5023376;28;20185;-89
2022/10/03 11:55:01;;;;;;;10.45;2.35;;;16.40;82.70;;;;;;5024028;28;20161;-90
2022/10/03 11:57:35;;;;;;;11.70;2.53;;;16.30;82.20;;;;;;5021603;28;20158;-89
2022/10/03 12:00:18;;;;;;;14.98;2.95;;;16.30;82.50;;;;;;5022648;28;20710;-89
2022/10/03 12:02:54;;;;;;;15.23;3.30;;;16.20;83.20;;;;;;5022346;28;20193;-88
2022/10/03 12:05:28;;;;;;;12.52;2.75;;;16.20;83.00;;;;;;5020936;28;20196;-89
2022/10/03 12:10:58;;;;;;;14.13;2.67;;;16.30;83.30;;;;;;5019936;28;20173;-89
2022/10/03 12:13:52;;;;;;;13.57;2.83;;;16.20;83.40;;;;;;5020403;28;20165;-89
2022/10/03 12:16:33;;;;;;;8.70;2.30;;;16.00;83.30;;;;;;4994180;28;20200;-88
2022/10/03 12:19:15;;;;;;;16.10;2.67;;;16.20;82.80;;;;;;5022162;28;20296;-90
2022/10/03 12:21:55;;;;;;;13.40;2.92;;;16.20;83.00;;;;;;5023278;28;20253;-89
2022/10/03 12:24:24;;;;;;;12.70;2.30;;;16.00;83.40;;;;;;5020626;28;20196;-87
2022/10/03 12:27:11;;;;;;;14.82;3.38;;;16.20;83.40;;;;;;5019841;28;20181;-88
2022/10/03 12:29:44;;;;;;;10.13;2.42;;;16.20;83.00;;;;;;5018676;28;20224;-87
2022/10/03 12:32:42;;;;;;;19.00;3.00;;;16.10;82.70;;;;;;5018571;28;20170;-90
2022/10/03 12:35:37;;;;;;;14.50;2.70;;;16.00;83.30;;;;;;5020066;28;20177;-91
2022/10/03 12:38:06;;;;;;;7.18;2.42;;;15.80;82.80;;;;;;5003325;28;20192;-89
2022/10/03 12:40:39;;;;;;;11.80;3.05;;;15.90;82.90;;;;;;5019139;28;20219;-91
2022/10/03 12:43:54;;;;;;;11.85;2.97;;;15.90;83.10;;;;;;5014515;28;20172;-89
2022/10/03 12:46:48;;;;;;;19.02;3.08;;;15.90;83.60;;;;;;4937728;29;20172;-89
2022/10/03 12:49:24;;;;;;;15.45;3.17;;;16.00;83.70;;;;;;4938908;29;20207;-90
2022/10/03 12:52:14;;;;;;;9.45;2.20;;;16.00;83.60;;;;;;5003896;28;20181;-89
2022/10/03 12:54:49;;;;;;;18.10;3.20;;;15.90;83.60;;;;;;5020244;28;20193;-89
2022/10/03 12:57:33;;;;;;;15.98;3.70;;;15.80;83.80;;;;;;5017934;28;20208;-90
2022/10/03 13:00:26;;;;;;;14.18;2.53;;;15.80;84.00;;;;;;5016055;28;20201;-90
2022/10/03 13:03:05;;;;;;;14.32;3.30;;;15.90;84.00;;;;;;5017254;28;20161;-91
2022/10/03 13:05:55;;;;;;;14.90;2.83;;;16.00;84.10;;;;;;5019975;28;20169;-88
2022/10/03 13:08:37;;;;;;;11.38;2.40;;;15.90;83.70;;;;;;5018808;28;20221;-90
2022/10/03 13:11:31;;;;;;;15.63;2.17;;;15.90;83.60;;;;;;5019995;28;20164;-90
2022/10/03 13:14:24;;;;;;;12.75;2.50;;;16.00;84.00;;;;;;5017510;28;20177;-89
2022/10/03 13:17:26;;;;;;;17.35;3.13;;;15.90;83.40;;;;;;5017275;28;20154;-89
2022/10/03 13:20:02;;;;;;;19.35;3.42;;;16.00;83.50;;;;;;5016378;28;20212;-89
2022/10/03 13:22:47;;;;;;;18.17;2.78;;;15.90;84.10;;;;;;5016266;28;20635;-89
2022/10/03 13:25:20;;;;;;;12.57;2.80;;;15.80;84.80;;;;;;5016418;28;20531;-90
2022/10/03 13:28:07;;;;;;;20.10;3.65;;;15.80;85.20;;;;;;5015311;28;20173;-90
2022/10/03 13:30:44;;;;;;;13.88;3.50;;;15.90;85.30;;;;;;5015130;28;20583;-90
2022/10/03 13:33:39;;;;;;;12.20;2.67;;;16.00;85.10;;;;;;5019077;28;20165;-89
2022/10/03 13:36:25;;;;;;;17.83;3.28;;;16.00;84.60;;;;;;5017508;28;20193;-87
2022/10/03 13:39:37;;;;;;;8.50;2.42;;;16.00;84.40;;;;;;5018710;28;20201;-90
2022/10/03 13:42:02;;;;;;;20.55;3.20;;;16.10;84.30;;;;;;5019940;28;20157;-89
2022/10/03 13:44:54;;;;;;;14.85;3.42;;;16.10;84.60;;;;;;5019759;28;20181;-89
2022/10/03 13:47:43;;;;;;;20.17;4.95;;;16.10;84.50;;;;;;5022685;28;20178;-90
2022/10/03 13:50:17;;;;;;;15.50;3.22;;;15.90;85.60;;;;;;5018977;28;20288;-90
2022/10/03 13:52:43;;;;;;;10.55;2.90;;;15.80;86.10;;;;;;5019458;28;20169;-91
2022/10/03 13:55:17;;;;;;;19.17;3.65;;;15.80;86.20;;;;;;5020196;28;20172;-89
2022/10/03 13:57:46;;;;;;;16.05;3.53;;;15.70;86.60;;;;;;5017242;28;20158;-87
2022/10/03 14:00:15;;;;;;;17.77;3.63;;;15.60;87.20;;;;;;5015208;28;20208;-87
2022/10/03 14:03:16;;;;;;;14.70;3.20;;;15.60;87.40;;;;;;5018794;28;20171;-89
2022/10/03 14:06:09;;;;;;;17.58;4.03;;;15.50;87.80;;;;;;5017325;28;20701;-89
2022/10/03 14:09:02;;;;;;;18.00;3.80;;;15.60;87.90;;;;;;5018014;28;20182;-89
2022/10/03 14:11:58;;;;;;;15.82;4.18;;;15.50;87.50;;;;;;5017751;28;20164;-89
2022/10/03 14:14:55;;;;;;;15.88;3.15;;;15.50;87.20;;;;;;5016772;28;20169;-89
2022/10/03 14:17:38;;;;;;;17.15;3.78;;;15.60;86.80;;;;;;5018735;28;20608;-89
2022/10/03 14:20:18;;;;;;;12.52;2.70;;;15.60;86.50;;;;;;5018235;28;20217;-88
2022/10/03 14:23:24;;;;;;;13.23;2.80;;;15.50;85.70;;;;;;5018223;28;20158;-89
2022/10/03 14:25:55;;;;;;;11.98;2.63;;;15.60;85.40;;;;;;5019504;28;20523;-89
2022/10/03 14:28:29;;;;;;;11.15;3.00;;;15.70;85.10;;;;;;5018643;28;20201;-89
2022/10/03 14:31:05;;;;;;;11.60;2.50;;;15.70;84.80;;;;;;5018500;28;20161;-89
2022/10/03 14:33:45;;;;;;;15.70;3.17;;;15.70;84.60;;;;;;5018296;28;20149;-89
2022/10/03 14:36:30;;;;;;;13.13;2.70;;;15.60;83.60;;;;;;5017647;28;20162;-89